Time;durP1;ratioP1;P1;durP2;ratioP2;P2;SDS_P1;SDS_P2;PMS_P1;PMS_P2;Temp;Humidity;BMP_temperature;BMP_pressure;BME280_temperature;BME280_humidity;BME280_pressure;Samples;Min_cycle;Max_cycle;Signal;HPM_P1;HPM_P2
2023/11/13 00:00:18;;;;;;;7.10;6.00;;;5.40;88.00;;;4.36;93.50;97455.72;4952593;28;20457;-75
2023/11/13 00:02:46;;;;;;;7.07;6.37;;;5.50;87.40;;;4.30;93.29;97451.94;4970952;28;20499;-75
2023/11/13 00:05:13;;;;;;;7.80;5.70;;;5.50;87.20;;;4.18;94.65;97438.25;4973666;28;20470;-77
2023/11/13 00:07:40;;;;;;;8.13;6.30;;;5.50;87.50;;;4.36;94.42;97453.03;4971754;28;20509;-75
2023/11/13 00:10:09;;;;;;;6.50;5.87;;;5.50;87.70;;;4.34;93.68;97469.25;4958680;28;20947;-79
2023/11/13 00:12:39;;;;;;;6.23;5.63;;;5.50;87.20;;;4.38;93.68;97457.16;4947528;28;20466;-80
2023/11/13 00:15:08;;;;;;;6.50;5.70;;;5.60;87.30;;;4.15;93.17;97422.56;4954533;28;20484;-74
2023/11/13 00:17:35;;;;;;;7.07;5.80;;;5.60;87.10;;;4.36;93.29;97485.13;4949855;28;20458;-77
2023/11/13 00:20:05;;;;;;;5.33;4.90;;;5.50;86.80;;;4.36;93.58;97469.09;4949992;28;20528;-78
2023/11/13 00:22:32;;;;;;;5.33;4.83;;;5.60;87.10;;;3.68;94.13;97400.66;4949576;28;20453;-78
2023/11/13 00:25:00;;;;;;;7.17;6.50;;;5.50;87.10;;;4.13;94.71;97467.38;4950403;29;20958;-79
2023/11/13 00:27:27;;;;;;;5.93;5.43;;;5.40;87.90;;;4.20;95.50;97454.94;4949739;28;20529;-76
2023/11/13 00:29:56;;;;;;;6.03;5.53;;;5.40;88.70;;;4.19;94.63;97444.41;4944041;28;20460;-75
2023/11/13 00:32:23;;;;;;;6.10;5.50;;;5.40;88.50;;;4.09;94.96;97450.06;4949337;28;20462;-77
2023/11/13 00:34:50;;;;;;;5.53;5.03;;;5.30;88.20;;;4.01;96.04;97436.78;4948565;28;20986;-77
2023/11/13 00:37:18;;;;;;;7.77;5.50;;;5.30;88.80;;;3.91;96.73;97447.78;4948603;29;20446;-76
2023/11/13 00:39:45;;;;;;;5.93;5.27;;;5.10;89.30;;;4.03;97.00;97440.13;4949110;29;20458;-76
2023/11/13 00:42:12;;;;;;;8.30;5.27;;;5.10;90.10;;;4.02;96.98;97431.25;4949368;28;20737;-75
2023/11/13 00:44:39;;;;;;;6.23;5.63;;;5.20;90.00;;;3.73;97.24;97400.09;4964222;28;20826;-75
2023/11/13 00:47:08;;;;;;;5.43;4.93;;;5.10;90.00;;;3.95;96.73;97433.88;4945304;28;20456;-77
2023/11/13 00:49:35;;;;;;;5.33;4.83;;;5.20;90.10;;;4.01;96.78;97460.84;4953823;28;20449;-76
2023/11/13 00:52:03;;;;;;;5.70;5.20;;;5.20;90.00;;;4.06;96.03;97456.59;4964190;28;20453;-76
2023/11/13 00:54:30;;;;;;;5.87;5.10;;;5.20;89.20;;;3.69;96.37;97402.31;4947411;28;20488;-74
2023/11/13 00:56:58;;;;;;;8.80;5.60;;;5.20;89.20;;;4.04;96.34;97447.94;4944628;28;20461;-76
2023/11/13 00:59:26;;;;;;;6.33;5.50;;;5.20;89.10;;;3.95;95.83;97457.09;4941671;28;20466;-77
2023/11/13 01:01:53;;;;;;;5.80;5.20;;;5.20;89.10;;;3.88;96.97;97451.66;4959122;28;20449;-76
2023/11/13 01:04:23;;;;;;;5.40;4.90;;;5.10;89.30;;;3.85;96.94;97465.38;4947834;28;20465;-77
2023/11/13 01:06:55;;;;;;;5.63;5.13;;;5.10;89.40;;;3.90;97.05;97460.34;4945542;28;20823;-78
2023/11/13 01:09:22;;;;;;;5.43;4.93;;;5.10;89.80;;;3.84;96.25;97450.38;4949750;28;20449;-77
2023/11/13 01:11:51;;;;;;;5.33;4.40;;;5.10;89.50;;;3.81;96.86;97459.59;4949466;29;20485;-78
2023/11/13 01:14:18;;;;;;;5.77;5.23;;;5.10;89.50;;;3.61;97.61;97416.59;4950275;28;20476;-78
2023/11/13 01:16:46;;;;;;;5.80;4.47;;;5.00;89.90;;;3.78;97.15;97432.41;4948913;28;20468;-79
2023/11/13 01:19:13;;;;;;;5.20;4.70;;;5.00;90.00;;;3.78;96.56;97427.06;4950750;28;20910;-79
2023/11/13 01:21:42;;;;;;;6.63;6.03;;;5.00;90.00;;;3.67;97.27;97426.53;4946026;28;20443;-77
2023/11/13 01:24:10;;;;;;;5.87;5.00;;;4.90;89.90;;;3.83;96.93;97419.31;4948994;28;20462;-77
2023/11/13 01:26:37;;;;;;;4.63;4.23;;;5.00;90.30;;;3.62;97.63;97404.03;4965082;28;21049;-77
2023/11/13 01:29:05;;;;;;;5.43;4.93;;;4.90;90.00;;;3.68;97.07;97406.81;4949719;28;20461;-79
2023/11/13 01:31:32;;;;;;;4.90;4.40;;;4.90;90.20;;;3.83;97.42;97422.00;4948377;28;20467;-77
2023/11/13 01:33:59;;;;;;;10.53;4.77;;;5.00;90.20;;;3.60;97.33;97400.72;4951016;29;20485;-76
2023/11/13 01:36:26;;;;;;;5.23;4.80;;;5.00;89.90;;;3.78;96.60;97409.19;4955672;28;20503;-76
2023/11/13 01:38:55;;;;;;;6.07;5.43;;;5.00;89.80;;;3.83;96.92;97404.13;4963165;28;20562;-74
2023/11/13 01:41:22;;;;;;;5.73;4.77;;;5.00;90.00;;;3.76;96.75;97413.06;4965546;28;20453;-77
2023/11/13 01:43:49;;;;;;;5.60;4.97;;;5.00;90.00;;;3.73;97.34;97402.75;4958025;28;20469;-77
2023/11/13 01:46:17;;;;;;;5.50;4.90;;;5.00;90.00;;;3.79;96.73;97375.28;4938379;28;20445;-75
2023/11/13 01:48:45;;;;;;;6.20;4.53;;;5.00;90.20;;;3.68;97.16;97379.28;4963660;28;20461;-77
2023/11/13 01:51:14;;;;;;;5.93;5.10;;;4.90;90.00;;;3.58;98.34;97378.72;4949128;28;20450;-77
2023/11/13 01:53:41;;;;;;;5.37;4.87;;;4.80;90.30;;;3.59;98.91;97375.03;4944571;28;20547;-77
2023/11/13 01:56:09;;;;;;;6.70;5.07;;;4.80;90.50;;;3.59;98.62;97375.03;4945398;28;20482;-76
2023/11/13 01:58:37;;;;;;;4.70;4.00;;;4.80;90.60;;;3.55;98.47;97377.25;4944008;28;20500;-76
2023/11/13 02:01:05;;;;;;;5.83;4.80;;;4.80;90.70;;;3.39;99.32;97381.78;4944822;29;20487;-77
2023/11/13 02:03:34;;;;;;;5.17;4.50;;;4.70;90.80;;;3.57;98.75;97393.09;4945196;29;20452;-78
2023/11/13 02:06:02;;;;;;;6.53;5.33;;;4.80;91.00;;;3.36;100.00;97384.00;4939276;29;20460;-76
2023/11/13 02:08:30;;;;;;;6.77;5.63;;;4.70;91.00;;;3.39;100.00;97372.94;4945409;28;20919;-77
2023/11/13 02:10:57;;;;;;;5.50;4.80;;;4.70;91.30;;;3.39;99.95;97349.72;4944935;29;20457;-79
2023/11/13 02:13:28;;;;;;;6.20;4.80;;;4.70;91.50;;;3.43;100.00;97344.84;4947519;28;20480;-79
2023/11/13 02:15:55;;;;;;;7.40;5.80;;;4.70;91.40;;;3.44;99.99;97353.69;4942199;28;20601;-80
2023/11/13 02:18:23;;;;;;;6.27;5.47;;;4.70;91.20;;;3.50;100.00;97371.63;4946250;28;20458;-77
2023/11/13 02:20:50;;;;;;;5.03;4.60;;;4.70;91.50;;;3.57;100.00;97366.38;4946256;28;20953;-75
2023/11/13 02:23:19;;;;;;;5.40;4.90;;;4.80;91.80;;;3.60;99.64;97366.84;4945508;28;20484;-74
2023/11/13 02:25:52;;;;;;;5.53;4.80;;;4.80;91.40;;;3.57;100.00;97364.56;4945388;28;20953;-75
2023/11/13 02:28:19;;;;;;;6.20;5.10;;;4.80;91.40;;;3.63;100.00;97371.81;4945950;29;20586;-76
2023/11/13 02:30:47;;;;;;;5.87;5.20;;;4.90;91.50;;;3.64;100.00;97377.97;4946579;28;20503;-76
2023/11/13 02:33:15;;;;;;;6.93;5.50;;;4.80;91.40;;;3.65;99.75;97390.34;4947450;28;20950;-77
2023/11/13 02:35:42;;;;;;;6.03;5.37;;;4.90;91.50;;;3.02;100.00;97274.09;4946746;28;21016;-76
2023/11/13 02:38:09;;;;;;;6.03;5.23;;;4.90;91.70;;;3.60;100.00;97384.69;4944098;28;20465;-76
2023/11/13 02:40:38;;;;;;;5.70;5.20;;;4.80;91.90;;;3.42;100.00;97337.84;4947402;28;20454;-77
2023/11/13 02:43:05;;;;;;;6.67;5.70;;;4.90;92.10;;;3.73;100.00;97365.34;4940138;28;20461;-79
2023/11/13 02:45:32;;;;;;;7.10;5.80;;;4.90;92.50;;;3.61;100.00;97365.84;4958169;28;20457;-75
2023/11/13 02:47:59;;;;;;;6.80;5.87;;;4.90;92.50;;;3.62;100.00;97359.47;4950976;28;20551;-78
2023/11/13 02:50:28;;;;;;;6.23;5.57;;;4.90;93.20;;;3.69;100.00;97354.22;4962042;28;20956;-77
2023/11/13 02:52:56;;;;;;;5.97;5.23;;;4.90;94.00;;;3.46;100.00;97349.00;4962912;28;20484;-76
2023/11/13 02:55:23;;;;;;;6.53;5.90;;;4.80;94.10;;;3.36;100.00;97343.94;4959313;28;20503;-75
2023/11/13 02:57:52;;;;;;;7.17;5.80;;;4.70;94.80;;;3.37;100.00;97333.06;4962177;28;20452;-75
2023/11/13 03:00:20;;;;;;;7.83;6.50;;;4.70;95.80;;;3.37;100.00;97333.06;4958482;28;20457;-76
2023/11/13 03:02:47;;;;;;;6.30;5.70;;;4.70;96.40;;;3.39;100.00;97339.03;4973555;28;20465;-77
2023/11/13 03:05:16;;;;;;;7.30;6.27;;;4.70;97.00;;;3.51;100.00;97342.09;4963048;28;21016;-74
2023/11/13 03:07:44;;;;;;;7.53;6.73;;;4.70;97.30;;;3.61;100.00;97357.81;4955886;28;20493;-76
2023/11/13 03:10:11;;;;;;;7.30;6.23;;;4.80;97.40;;;3.61;100.00;97360.50;4952016;29;20580;-75
2023/11/13 03:12:40;;;;;;;7.50;6.67;;;4.80;97.00;;;3.49;100.00;97361.97;4954371;28;20457;-75
2023/11/13 03:15:10;;;;;;;10.60;6.37;;;4.70;96.60;;;3.54;100.00;97363.06;4953140;28;20465;-75
2023/11/13 03:17:37;;;;;;;8.37;6.53;;;4.80;97.10;;;3.57;100.00;97363.72;4950086;29;20453;-75
2023/11/13 03:20:07;;;;;;;7.90;6.33;;;4.80;96.70;;;3.65;100.00;97364.44;4949981;28;20457;-77
2023/11/13 03:22:34;;;;;;;12.07;6.83;;;4.80;96.90;;;3.50;100.00;97355.63;4966662;28;20452;-75
2023/11/13 03:25:04;;;;;;;7.53;6.80;;;4.80;96.10;;;3.53;100.00;97360.56;4950263;28;20461;-75
2023/11/13 03:27:31;;;;;;;7.57;6.47;;;4.80;96.10;;;3.64;100.00;97352.09;4965736;28;20943;-75
2023/11/13 03:29:59;;;;;;;7.37;6.63;;;4.80;95.90;;;3.67;100.00;97349.03;4949765;28;20524;-76
2023/11/13 03:32:27;;;;;;;8.87;6.67;;;4.80;95.80;;;3.59;100.00;97340.31;4949909;28;20578;-77
2023/11/13 03:34:55;;;;;;;8.17;7.13;;;4.90;95.80;;;3.60;100.00;97342.81;4943067;28;20476;-77
2023/11/13 03:37:22;;;;;;;7.23;6.53;;;4.80;96.50;;;3.53;100.00;97320.50;4949866;28;20536;-76
2023/11/13 03:39:50;;;;;;;10.60;7.63;;;4.90;97.10;;;3.64;100.00;97336.06;4960336;28;20513;-77
2023/11/13 03:42:18;;;;;;;11.00;8.80;;;4.90;97.40;;;3.58;100.00;97315.44;4962778;28;20889;-75
2023/11/13 03:44:45;;;;;;;9.00;7.17;;;4.90;97.90;;;3.73;100.00;97328.75;4947160;28;20458;-76
2023/11/13 03:47:13;;;;;;;9.07;7.10;;;4.90;98.10;;;3.68;100.00;97315.97;4949569;28;20548;-75
2023/11/13 03:49:41;;;;;;;10.10;8.20;;;4.90;98.40;;;3.60;100.00;97308.06;4948844;28;20517;-76
2023/11/13 03:52:13;;;;;;;8.13;6.67;;;4.80;98.50;;;3.60;100.00;97310.75;4946616;28;20468;-74
2023/11/13 03:54:41;;;;;;;11.20;8.27;;;4.80;99.10;;;3.65;100.00;97299.50;4946586;28;20507;-77
2023/11/13 03:57:10;;;;;;;8.30;7.10;;;4.80;99.90;;;3.73;100.00;97309.25;4950328;28;20472;-75
2023/11/13 03:59:38;;;;;;;9.80;8.13;;;4.90;99.90;;;3.71;100.00;97308.56;4955416;28;20963;-75
2023/11/13 04:02:05;;;;;;;9.73;8.10;;;4.90;99.90;;;3.66;100.00;97304.63;4965139;28;20475;-75
2023/11/13 04:04:32;;;;;;;9.40;7.63;;;4.90;99.90;;;3.59;100.00;97306.41;4963614;28;20464;-76
2023/11/13 04:07:01;;;;;;;10.73;7.77;;;4.80;99.90;;;3.67;100.00;97303.63;4957676;28;20453;-76
2023/11/13 04:09:29;;;;;;;10.77;8.97;;;4.90;99.90;;;3.71;100.00;97292.53;4978194;28;20439;-77
2023/11/13 04:11:56;;;;;;;10.97;8.07;;;4.90;99.90;;;3.65;100.00;97299.50;4957590;29;20450;-74
2023/11/13 04:14:23;;;;;;;9.33;7.73;;;4.90;99.90;;;3.73;100.00;97293.22;4963538;29;20525;-75
2023/11/13 04:16:51;;;;;;;13.30;8.57;;;4.90;99.90;;;3.77;100.00;97302.50;4960470;28;20492;-71
2023/11/13 04:19:20;;;;;;;13.40;8.37;;;5.00;99.90;;;3.70;100.00;97297.09;4956742;28;20461;-75
2023/11/13 04:21:47;;;;;;;10.67;8.07;;;4.90;99.90;;;3.67;100.00;97306.28;4956835;28;20520;-76
2023/11/13 04:24:16;;;;;;;11.93;9.23;;;4.90;99.90;;;3.65;100.00;97308.31;4956900;28;20544;-76
2023/11/13 04:26:43;;;;;;;10.90;7.80;;;4.90;99.90;;;3.76;100.00;97312.34;4951514;28;20491;-75
2023/11/13 04:29:11;;;;;;;10.80;8.60;;;4.90;99.90;;;3.82;100.00;97316.09;4949134;28;20606;-75
2023/11/13 04:31:38;;;;;;;10.93;7.67;;;5.00;99.90;;;3.82;100.00;97316.09;4949919;28;20456;-74
2023/11/13 04:34:06;;;;;;;13.17;9.60;;;5.00;99.90;;;3.72;100.00;97315.59;4946994;28;20938;-75
2023/11/13 04:36:33;;;;;;;10.43;7.87;;;5.00;99.90;;;3.75;100.00;97310.69;4949485;28;20888;-76
2023/11/13 04:39:00;;;;;;;11.90;8.77;;;5.00;99.90;;;3.90;100.00;97313.31;4949817;28;20488;-74
2023/11/13 04:41:29;;;;;;;11.53;8.27;;;5.00;99.90;;;3.90;100.00;97321.34;4947660;28;20939;-73
2023/11/13 04:43:56;;;;;;;14.23;8.90;;;5.10;99.90;;;3.91;100.00;97314.13;4944284;29;20458;-74
2023/11/13 04:46:24;;;;;;;11.33;8.43;;;5.10;99.90;;;3.90;100.00;97315.16;4947771;28;20446;-74
2023/11/13 04:48:51;;;;;;;10.57;7.77;;;5.10;99.90;;;3.87;100.00;97318.22;4950038;28;20551;-72
2023/11/13 04:51:18;;;;;;;10.00;6.73;;;5.10;99.90;;;3.96;100.00;97317.91;4949812;28;21259;-77
2023/11/13 04:53:46;;;;;;;10.33;7.40;;;5.10;99.90;;;3.93;100.00;97314.78;4949745;29;20467;-77
2023/11/13 04:56:13;;;;;;;9.10;7.30;;;5.10;99.90;;;3.95;100.00;97323.47;4948680;28;20710;-76
2023/11/13 04:58:43;;;;;;;11.17;7.77;;;5.10;99.90;;;4.00;100.00;97322.84;4947416;28;20458;-72
2023/11/13 05:01:10;;;;;;;9.77;7.60;;;5.10;99.90;;;3.83;100.00;97307.06;4948374;29;20473;-76
2023/11/13 05:03:37;;;;;;;12.07;7.80;;;5.10;99.90;;;4.00;100.00;97312.16;4948290;29;20448;-78
2023/11/13 05:06:05;;;;;;;10.97;8.20;;;5.10;99.90;;;3.94;100.00;97319.94;4948807;28;20476;-78
2023/11/13 05:08:33;;;;;;;11.17;7.43;;;5.10;99.90;;;3.76;100.00;97276.78;4961941;28;20449;-77
2023/11/13 05:11:00;;;;;;;9.77;7.47;;;5.20;99.90;;;3.94;100.00;97303.91;4944421;28;20497;-79
2023/11/13 05:13:28;;;;;;;11.20;7.93;;;5.10;99.90;;;3.75;100.00;97272.47;4948259;29;20476;-76
2023/11/13 05:15:56;;;;;;;10.40;7.90;;;5.10;99.90;;;3.93;100.00;97296.91;4945830;28;20604;-73
2023/11/13 05:18:24;;;;;;;9.67;8.00;;;5.10;99.90;;;3.89;100.00;97306.31;4949104;28;20525;-74
2023/11/13 05:20:51;;;;;;;14.50;8.40;;;5.10;99.90;;;3.89;100.00;97303.66;4950431;28;20803;-73
2023/11/13 05:23:19;;;;;;;11.37;8.20;;;5.10;99.90;;;3.94;100.00;97293.22;4950801;29;20454;-75
2023/11/13 05:25:46;;;;;;;12.47;9.43;;;5.10;99.90;;;3.94;100.00;97293.22;4963915;28;20458;-74
2023/11/13 05:28:13;;;;;;;11.73;9.30;;;5.10;99.90;;;3.90;100.00;97297.28;4959051;28;20513;-74
2023/11/13 05:30:40;;;;;;;12.30;9.20;;;5.10;99.90;;;3.73;100.00;97279.84;4953592;28;20462;-75
2023/11/13 05:33:09;;;;;;;13.13;8.90;;;5.10;99.90;;;3.87;100.00;97292.34;4949358;29;20990;-73
2023/11/13 05:35:36;;;;;;;13.23;9.37;;;5.10;99.90;;;3.85;100.00;97299.69;4946806;28;20527;-75
2023/11/13 05:38:04;;;;;;;12.80;9.17;;;5.10;99.90;;;3.94;100.00;97298.56;4944192;28;20473;-75
2023/11/13 05:40:31;;;;;;;27.20;16.53;;;5.10;99.90;;;3.96;100.00;97296.50;4947035;28;20617;-76
2023/11/13 05:42:59;;;;;;;18.63;10.57;;;5.10;99.90;;;3.99;100.00;97295.31;4938023;28;20458;-75
2023/11/13 05:45:26;;;;;;;14.67;10.70;;;5.10;99.90;;;3.96;100.00;97291.16;4947262;28;20893;-77
2023/11/13 05:47:53;;;;;;;15.33;10.17;;;5.20;99.90;;;4.02;100.00;97289.59;4959873;28;20561;-77
2023/11/13 05:50:23;;;;;;;12.23;9.70;;;5.20;99.90;;;4.01;100.00;97289.75;4967447;28;20467;-74
2023/11/13 05:52:51;;;;;;;14.03;9.80;;;5.20;99.90;;;3.99;100.00;97289.97;4984297;28;20456;-74
2023/11/13 05:55:18;;;;;;;15.00;9.93;;;5.20;99.90;;;3.89;100.00;97274.25;4970115;29;20463;-74
2023/11/13 05:57:45;;;;;;;14.40;9.47;;;5.20;99.90;;;3.99;100.00;97278.44;4962240;28;20480;-74
2023/11/13 06:00:15;;;;;;;12.13;8.67;;;5.20;99.90;;;3.89;100.00;97271.59;4951910;28;21344;-74
2023/11/13 06:02:42;;;;;;;16.90;10.53;;;5.20;99.90;;;4.02;100.00;97288.75;4948813;28;20462;-75
2023/11/13 06:05:09;;;;;;;16.30;9.93;;;5.20;99.90;;;3.95;100.00;97288.72;4947972;28;20512;-77
2023/11/13 06:07:39;;;;;;;13.30;9.57;;;5.20;99.90;;;4.02;100.00;97292.25;4950004;28;20497;-84
2023/11/13 06:10:10;;;;;;;16.57;11.30;;;5.20;99.90;;;3.94;100.00;97269.16;4944679;28;20511;-77
2023/11/13 06:12:39;;;;;;;14.03;10.60;;;5.20;99.90;;;4.04;100.00;97292.06;4945585;29;20834;-73
2023/11/13 06:15:10;;;;;;;17.27;9.87;;;5.20;99.90;;;4.13;100.00;97290.91;4938371;28;20545;-75
2023/11/13 06:17:37;;;;;;;10.80;8.17;;;5.30;99.90;;;4.04;100.00;97278.72;4941263;28;20488;-73
2023/11/13 06:20:06;;;;;;;12.90;9.20;;;5.30;99.90;;;4.09;100.00;97276.28;4940490;28;20463;-71
2023/11/13 06:22:33;;;;;;;12.97;8.87;;;5.30;99.90;;;4.24;100.00;97287.72;4938774;28;20473;-72
2023/11/13 06:25:04;;;;;;;12.77;8.70;;;5.40;99.90;;;4.18;100.00;97288.50;4950144;28;20492;-78
2023/11/13 06:27:31;;;;;;;14.47;9.00;;;5.40;99.90;;;4.31;100.00;97297.63;4948951;28;20461;-76
2023/11/13 06:29:59;;;;;;;12.10;8.77;;;5.40;99.90;;;4.33;100.00;97291.09;4946505;29;20868;-76
2023/11/13 06:32:27;;;;;;;14.00;9.30;;;5.50;99.90;;;4.38;100.00;97293.19;4948301;29;20508;-77
2023/11/13 06:34:56;;;;;;;12.03;8.30;;;5.50;99.90;;;4.38;100.00;97299.34;4947755;28;20480;-77
2023/11/13 06:37:24;;;;;;;13.77;10.00;;;5.50;99.90;;;4.57;100.00;97298.88;4950852;28;20514;-75
2023/11/13 06:39:52;;;;;;;11.27;8.50;;;5.60;99.90;;;4.61;100.00;97297.47;4952271;28;20524;-73
2023/11/13 06:42:21;;;;;;;13.60;8.37;;;5.70;99.90;;;4.52;100.00;97305.66;4962710;28;20473;-79
2023/11/13 06:44:48;;;;;;;13.70;7.77;;;5.70;99.90;;;4.51;100.00;97305.81;4962306;28;20618;-76
2023/11/13 06:47:16;;;;;;;13.73;8.03;;;5.70;99.90;;;4.44;100.00;97311.13;4946738;28;20557;-78
2023/11/13 06:49:43;;;;;;;12.60;8.30;;;5.60;99.90;;;4.50;100.00;97304.19;4944211;28;20460;-77
2023/11/13 06:52:11;;;;;;;12.67;7.97;;;5.70;99.90;;;4.57;100.00;97317.59;4947365;28;20990;-73
2023/11/13 06:54:38;;;;;;;10.50;7.07;;;5.70;99.90;;;4.58;100.00;97313.91;4948556;28;20468;-77
2023/11/13 06:57:06;;;;;;;11.00;7.43;;;5.70;99.90;;;4.64;100.00;97313.97;4944473;28;20511;-78
2023/11/13 06:59:34;;;;;;;10.50;7.57;;;5.70;99.90;;;4.73;100.00;97311.97;4941133;28;20536;-76
2023/11/13 07:02:02;;;;;;;13.67;8.13;;;5.80;99.90;;;4.63;100.00;97312.31;4943752;28;20509;-76
2023/11/13 07:04:30;;;;;;;16.10;8.70;;;5.80;99.90;;;4.77;100.00;97297.16;4945771;29;20460;-77
2023/11/13 07:06:59;;;;;;;10.77;7.27;;;5.90;99.90;;;4.77;100.00;97307.84;4945363;28;20832;-78
2023/11/13 07:09:27;;;;;;;13.03;7.33;;;5.90;99.90;;;4.80;100.00;97301.31;4947361;28;20956;-75
2023/11/13 07:11:55;;;;;;;12.03;8.70;;;5.90;99.90;;;4.95;100.00;97306.56;4941049;28;20525;-77
2023/11/13 07:14:23;;;;;;;10.63;7.43;;;6.00;99.90;;;5.08;100.00;97313.81;4947318;28;20457;-77
2023/11/13 07:16:52;;;;;;;11.07;7.23;;;6.10;99.90;;;5.05;100.00;97309.69;4924574;29;20862;-75
2023/11/13 07:19:20;;;;;;;10.63;6.77;;;6.10;99.90;;;4.95;100.00;97310.03;4943215;28;20453;-74
2023/11/13 07:21:47;;;;;;;9.20;6.50;;;6.10;99.90;;;5.12;100.00;97306.22;4946728;28;20461;-75
2023/11/13 07:24:14;;;;;;;11.13;6.60;;;6.20;99.90;;;4.74;100.00;97261.94;4936000;28;20446;-74
2023/11/13 07:26:41;;;;;;;10.53;7.83;;;6.20;99.90;;;4.92;100.00;97301.56;4961246;28;20454;-74
2023/11/13 07:29:08;;;;;;;11.37;7.70;;;6.10;99.90;;;5.14;100.00;97313.03;4942975;28;20471;-74
2023/11/13 07:31:36;;;;;;;11.63;7.30;;;6.20;99.90;;;5.34;100.00;97307.78;4944783;28;20462;-74
2023/11/13 07:34:05;;;;;;;10.23;7.27;;;6.30;99.90;;;5.09;100.00;97289.53;4951990;28;20450;-74
2023/11/13 07:36:32;;;;;;;8.77;6.80;;;6.30;99.90;;;5.02;100.00;97280.63;4948835;28;20489;-75
2023/11/13 07:39:00;;;;;;;10.23;6.67;;;6.30;99.90;;;5.31;100.00;97313.53;4943382;28;20478;-73
2023/11/13 07:41:27;;;;;;;9.87;7.10;;;6.30;99.90;;;5.22;100.00;97310.19;4947166;28;20469;-73
2023/11/13 07:43:56;;;;;;;10.03;6.90;;;6.30;99.90;;;5.18;100.00;97300.91;4948876;28;20450;-74
2023/11/13 07:46:25;;;;;;;13.03;9.27;;;6.40;99.90;;;4.88;100.00;97244.09;4950252;28;21210;-72
2023/11/13 07:48:52;;;;;;;11.57;7.60;;;6.40;99.90;;;5.34;100.00;97299.75;4942570;28;20450;-74
2023/11/13 07:51:21;;;;;;;9.40;7.63;;;6.40;99.90;;;5.50;100.00;97303.09;4944767;28;20466;-73
2023/11/13 07:53:49;;;;;;;10.53;7.63;;;6.50;99.90;;;5.47;100.00;97314.22;4938275;28;20457;-72
2023/11/13 07:56:19;;;;;;;9.23;6.23;;;6.60;99.90;;;5.59;100.00;97303.75;4945738;28;20470;-72
2023/11/13 07:58:46;;;;;;;7.97;6.30;;;6.70;99.90;;;5.65;100.00;97295.72;4949185;28;20811;-74
2023/11/13 08:01:14;;;;;;;9.07;6.90;;;6.70;99.90;;;5.82;100.00;97298.88;4947794;28;20465;-74
2023/11/13 08:03:41;;;;;;;9.83;7.57;;;6.80;99.90;;;5.76;100.00;97296.19;4949159;28;20458;-73
2023/11/13 08:06:10;;;;;;;9.20;7.80;;;6.90;99.90;;;6.02;100.00;97291.94;4942036;28;20462;-73
2023/11/13 08:08:39;;;;;;;8.87;6.40;;;6.90;99.90;;;6.35;100.00;97291.94;4943933;28;20469;-74
2023/11/13 08:11:07;;;;;;;11.67;6.80;;;7.20;99.90;;;5.67;100.00;97242.75;4944280;28;20464;-74
2023/11/13 08:13:35;;;;;;;9.40;7.60;;;7.10;99.90;;;6.02;100.00;97298.13;4946448;28;20830;-75
2023/11/13 08:16:04;;;;;;;8.57;5.90;;;7.10;99.90;;;6.08;100.00;97307.19;4945997;28;20788;-75
2023/11/13 08:18:31;;;;;;;7.53;6.20;;;7.10;99.90;;;6.30;100.00;97315.09;4936819;28;20572;-74
2023/11/13 08:20:59;;;;;;;8.30;6.57;;;7.20;99.90;;;6.27;100.00;97305.59;4948974;28;20465;-77
2023/11/13 08:23:28;;;;;;;10.30;7.00;;;7.30;99.90;;;6.60;100.00;97326.22;4947540;28;20927;-76
2023/11/13 08:25:59;;;;;;;9.00;6.83;;;7.50;99.90;;;6.50;100.00;97323.97;4943463;28;20541;-77
2023/11/13 08:28:27;;;;;;;8.17;6.37;;;7.50;99.90;;;6.50;100.00;97326.66;4956009;28;20450;-77
2023/11/13 08:30:56;;;;;;;8.30;6.50;;;7.60;99.90;;;6.54;100.00;97326.22;4946532;28;20550;-74
2023/11/13 08:33:23;;;;;;;10.47;7.57;;;7.60;99.90;;;6.91;100.00;97322.06;4944971;28;20450;-79
2023/11/13 08:35:51;;;;;;;7.47;6.33;;;7.80;99.90;;;6.57;100.00;97281.03;4946184;28;20455;-75
2023/11/13 08:38:18;;;;;;;8.97;7.20;;;7.90;99.90;;;6.89;100.00;97328.69;4949366;28;20466;-78
2023/11/13 08:40:49;;;;;;;10.97;6.93;;;7.90;99.90;;;7.13;100.00;97323.69;4945983;28;20473;-75
2023/11/13 08:43:17;;;;;;;6.43;5.53;;;8.00;99.90;;;7.34;100.00;97319.91;4945629;28;20533;-77
2023/11/13 08:45:47;;;;;;;8.20;6.37;;;8.20;99.90;;;7.56;100.00;97312.38;4962670;28;21030;-73
2023/11/13 08:48:15;;;;;;;10.37;7.23;;;8.40;99.90;;;7.34;100.00;97315.34;4965863;28;20466;-73
2023/11/13 08:50:44;;;;;;;9.30;7.67;;;8.40;97.80;;;7.65;100.00;97304.91;4969781;28;20471;-72
2023/11/13 08:53:11;;;;;;;8.23;6.20;;;8.50;99.20;;;7.91;100.00;97314.69;4960786;28;20492;-75
2023/11/13 08:55:39;;;;;;;12.90;6.57;;;8.70;99.70;;;7.57;100.00;97314.03;4964972;28;20490;-73
2023/11/13 08:58:06;;;;;;;7.97;6.60;;;8.70;96.90;;;7.63;100.00;97317.75;4951466;28;20500;-79
2023/11/13 09:00:41;;;;;;;8.80;6.13;;;8.60;97.60;;;7.84;100.00;97315.75;4946888;28;20490;-72
2023/11/13 09:03:09;;;;;;;7.53;5.70;;;8.70;98.30;;;7.79;100.00;97319.94;4944996;28;20457;-78
2023/11/13 09:05:37;;;;;;;14.33;6.57;;;8.80;98.00;;;8.08;100.00;97323.09;4946970;28;20465;-78
2023/11/13 09:08:05;;;;;;;9.47;6.50;;;8.90;98.90;;;7.97;100.00;97328.34;4943676;28;20525;-77
2023/11/13 09:10:32;;;;;;;9.47;6.17;;;8.90;97.70;;;7.92;100.00;97327.09;4950414;28;20451;-77
2023/11/13 09:13:00;;;;;;;7.70;6.53;;;8.90;97.70;;;7.87;100.00;97332.31;4945390;28;20496;-78
2023/11/13 09:15:30;;;;;;;8.40;6.00;;;8.80;97.50;;;7.68;100.00;97335.94;4944447;28;20956;-78
2023/11/13 09:18:01;;;;;;;10.57;6.30;;;8.80;97.10;;;8.00;100.00;97333.28;4949566;28;20493;-75
2023/11/13 09:20:29;;;;;;;10.33;7.07;;;8.90;98.70;;;7.98;100.00;97332.69;4965906;28;20458;-75
2023/11/13 09:22:56;;;;;;;11.90;6.43;;;9.00;98.20;;;8.13;100.00;97327.81;4969663;28;20446;-73
2023/11/13 09:25:26;;;;;;;9.00;6.17;;;9.10;98.90;;;8.29;100.00;97334.53;4967752;28;20463;-74
2023/11/13 09:27:56;;;;;;;12.50;6.70;;;9.10;98.90;;;8.36;100.00;97339.88;4973742;28;20892;-77
2023/11/13 09:30:24;;;;;;;13.03;6.73;;;9.30;98.40;;;8.40;100.00;97338.38;4949407;28;20465;-78
2023/11/13 09:32:53;;;;;;;10.00;5.60;;;9.30;97.80;;;8.54;100.00;97323.00;4946842;28;20463;-73
2023/11/13 09:35:22;;;;;;;10.13;5.60;;;9.50;97.20;;;8.54;100.00;97335.63;4939982;28;20461;-78
2023/11/13 09:37:52;;;;;;;8.47;4.90;;;9.50;96.70;;;8.38;100.00;97307.38;4946256;28;20493;-77
2023/11/13 09:40:23;;;;;;;7.87;4.80;;;9.60;96.20;;;8.76;100.00;97331.53;4945854;28;20460;-75
2023/11/13 09:42:53;;;;;;;11.43;5.13;;;9.60;96.20;;;8.79;100.00;97320.31;4941523;28;20556;-74
2023/11/13 09:45:21;;;;;;;8.30;4.50;;;9.60;96.50;;;8.83;100.00;97315.31;4945416;28;20464;-76
2023/11/13 09:47:50;;;;;;;9.77;5.40;;;9.60;96.20;;;9.01;100.00;97309.09;4950221;28;20910;-75
2023/11/13 09:50:19;;;;;;;11.63;4.77;;;9.70;96.50;;;9.09;100.00;97309.88;4944167;28;20606;-74
2023/11/13 09:52:50;;;;;;;5.83;3.83;;;9.70;95.90;;;9.12;100.00;97306.72;4943075;28;20497;-74
2023/11/13 09:55:20;;;;;;;7.70;3.93;;;9.80;95.50;;;9.37;100.00;97308.53;4943941;28;20456;-75
2023/11/13 09:57:51;;;;;;;8.60;4.20;;;9.90;96.30;;;9.53;100.00;97305.25;4947926;28;20478;-76
2023/11/13 10:00:23;;;;;;;10.57;4.73;;;10.20;96.50;;;9.76;100.00;97301.00;4947132;28;20457;-76
2023/11/13 10:02:52;;;;;;;12.73;4.73;;;10.30;95.40;;;9.67;100.00;97313.16;4947563;28;20469;-72
2023/11/13 10:05:21;;;;;;;8.33;3.80;;;10.40;93.60;;;9.53;100.00;97315.19;4941797;28;20562;-74
2023/11/13 10:07:52;;;;;;;9.13;3.87;;;10.30;93.80;;;9.47;100.00;97303.44;4946176;28;20462;-72
2023/11/13 10:10:22;;;;;;;6.23;3.57;;;10.30;94.10;;;9.42;100.00;97314.06;4941511;28;20467;-74
2023/11/13 10:12:51;;;;;;;9.60;3.87;;;10.20;94.00;;;9.23;100.00;97308.69;4945858;28;20459;-73
2023/11/13 10:15:24;;;;;;;5.13;2.97;;;10.10;94.10;;;9.48;100.00;97305.91;4943147;28;20454;-73
2023/11/13 10:17:53;;;;;;;7.20;3.50;;;10.20;95.30;;;9.34;100.00;97294.47;4941192;28;20525;-72
2023/11/13 10:20:21;;;;;;;9.70;4.10;;;10.20;94.50;;;9.24;100.00;97299.56;4942988;28;20883;-74
2023/11/13 10:23:03;;;;;;;17.10;3.67;;;10.10;95.00;;;8.73;100.00;97216.16;4946774;28;20469;-74
2023/11/13 10:25:45;;;;;;;10.27;3.43;;;10.10;95.30;;;9.50;100.00;97281.44;4937584;28;20455;-75